Time;durP1;ratioP1;P1;durP2;ratioP2;P2;SDS_P1;SDS_P2;PMS_P1;PMS_P2;Temp;Humidity;BMP_temperature;BMP_pressure;BME280_temperature;BME280_humidity;BME280_pressure;Samples;Min_cycle;Max_cycle;Signal;HPM_P1;HPM_P2
2019/12/19 00:00:49;;;;;;;10.95;4.85;;;;;;;4.82;78.82715;95326.84;;;;
2019/12/19 00:01:50;;;;;;;10.95;4.85;;;;;;;4.82;78.82715;95326.84;;;;
2019/12/19 00:02:52;;;;;;;10.95;4.85;;;;;;;4.82;78.82715;95326.84;;;;
2019/12/19 00:03:53;;;;;;;8.950001;4.45;;;;;;;4.68;79.16113;95308.56;;;;
2019/12/19 00:04:54;;;;;;;8.950001;4.45;;;;;;;4.68;79.16113;95308.56;;;;
2019/12/19 00:05:55;;;;;;;8.950001;4.45;;;;;;;4.68;79.16113;95308.56;;;;
2019/12/19 00:06:56;;;;;;;8.950001;4.45;;;;;;;4.68;79.16113;95308.56;;;;
2019/12/19 00:07:57;;;;;;;8.950001;4.45;;;;;;;4.68;79.16113;95308.56;;;;
2019/12/19 00:08:59;;;;;;;8.950001;4.45;;;;;;;4.68;79.16113;95308.56;;;;
2019/12/19 00:10:00;;;;;;;8.950001;4.45;;;;;;;4.68;79.16113;95308.56;;;;
2019/12/19 00:11:01;;;;;;;8.950001;4.45;;;;;;;4.68;79.16113;95308.56;;;;
2019/12/19 00:12:02;;;;;;;8.950001;4.45;;;;;;;4.68;79.16113;95308.56;;;;
2019/12/19 00:13:03;;;;;;;8.950001;4.45;;;;;;;4.68;79.16113;95308.56;;;;
2019/12/19 00:14:04;;;;;;;8.950001;4.45;;;;;;;4.68;79.16113;95308.56;;;;
2019/12/19 00:15:07;;;;;;;8.950001;4.45;;;;;;;4.68;79.16113;95308.56;;;;
2019/12/19 00:16:16;;;;;;;8.950001;4.45;;;;;;;4.68;79.16113;95308.56;;;;
2019/12/19 00:17:24;;;;;;;8.950001;4.45;;;;;;;4.68;79.16113;95308.56;;;;
2019/12/19 00:18:26;;;;;;;8.950001;4.45;;;;;;;4.68;79.16113;95308.56;;;;
2019/12/19 00:19:27;;;;;;;8.950001;4.45;;;;;;;4.68;79.16113;95308.56;;;;
2019/12/19 00:20:28;;;;;;;8.950001;4.45;;;;;;;4.68;79.16113;95308.56;;;;
2019/12/19 00:21:29;;;;;;;8.950001;4.45;;;;;;;4.68;79.16113;95308.56;;;;
2019/12/19 00:22:30;;;;;;;8.950001;4.45;;;;;;;4.68;79.16113;95308.56;;;;
2019/12/19 00:23:31;;;;;;;8.950001;4.45;;;;;;;4.68;79.16113;95308.56;;;;
2019/12/19 00:24:32;;;;;;;8.950001;4.45;;;;;;;4.68;79.16113;95308.56;;;;
2019/12/19 00:25:34;;;;;;;9.849999;4.900001;;;;;;;4.29;79.35156;95290.08;;;;
2019/12/19 00:26:35;;;;;;;9.849999;4.900001;;;;;;;4.29;79.35156;95290.08;;;;
2019/12/19 00:27:36;;;;;;;9.849999;4.900001;;;;;;;4.29;79.35156;95290.08;;;;
2019/12/19 00:28:37;;;;;;;9.849999;4.900001;;;;;;;4.29;79.35156;95290.08;;;;
2019/12/19 00:29:38;;;;;;;9.849999;4.900001;;;;;;;4.29;79.35156;95290.08;;;;
2019/12/19 00:30:39;;;;;;;9.849999;4.900001;;;;;;;4.29;79.35156;95290.08;;;;
2019/12/19 00:31:40;;;;;;;9.849999;4.900001;;;;;;;4.29;79.35156;95290.08;;;;
2019/12/19 00:32:42;;;;;;;9.849999;4.900001;;;;;;;4.29;79.35156;95290.08;;;;
2019/12/19 00:33:43;;;;;;;9.849999;4.900001;;;;;;;4.29;79.35156;95290.08;;;;
2019/12/19 00:34:44;;;;;;;9.849999;4.900001;;;;;;;4.29;79.35156;95290.08;;;;
2019/12/19 00:35:45;;;;;;;12.45;4.900001;;;;;;;4.07;80.00488;95288.08;;;;
2019/12/19 00:36:46;;;;;;;12.45;4.900001;;;;;;;4.07;80.00488;95288.08;;;;
2019/12/19 00:37:47;;;;;;;12.45;4.900001;;;;;;;4.07;80.00488;95288.08;;;;
2019/12/19 00:38:48;;;;;;;12.45;4.900001;;;;;;;4.07;80.00488;95288.08;;;;
2019/12/19 00:39:49;;;;;;;12.45;4.900001;;;;;;;4.07;80.00488;95288.08;;;;
2019/12/19 00:40:50;;;;;;;12.45;4.900001;;;;;;;4.07;80.00488;95288.08;;;;
2019/12/19 00:41:51;;;;;;;12.45;4.900001;;;;;;;4.07;80.00488;95288.08;;;;
2019/12/19 00:42:53;;;;;;;12.45;4.900001;;;;;;;4.07;80.00488;95288.08;;;;
2019/12/19 00:43:54;;;;;;;12.45;4.900001;;;;;;;4.07;80.00488;95288.08;;;;
2019/12/19 00:44:55;;;;;;;12.45;4.900001;;;;;;;4.07;80.00488;95288.08;;;;
2019/12/19 00:45:56;;;;;;;12.45;4.900001;;;;;;;4.07;80.00488;95288.08;;;;
2019/12/19 00:46:57;;;;;;;9.200001;4.95;;;;;;;3.83;80.20313;95286.3;;;;
2019/12/19 00:47:58;;;;;;;9.200001;4.95;;;;;;;3.83;80.20313;95286.3;;;;
2019/12/19 00:48:59;;;;;;;9.200001;4.95;;;;;;;3.83;80.20313;95286.3;;;;
2019/12/19 00:50:00;;;;;;;9.200001;4.95;;;;;;;3.83;80.20313;95286.3;;;;
2019/12/19 00:51:01;;;;;;;9.200001;4.95;;;;;;;3.83;80.20313;95286.3;;;;
2019/12/19 00:52:02;;;;;;;9.200001;4.95;;;;;;;3.83;80.20313;95286.3;;;;
2019/12/19 00:53:04;;;;;;;9.200001;4.95;;;;;;;3.83;80.20313;95286.3;;;;
2019/12/19 00:54:05;;;;;;;9.200001;4.95;;;;;;;3.83;80.20313;95286.3;;;;
2019/12/19 00:55:06;;;;;;;9.200001;4.95;;;;;;;3.83;80.20313;95286.3;;;;
2019/12/19 00:56:07;;;;;;;9.200001;4.95;;;;;;;3.83;80.20313;95286.3;;;;
2019/12/19 00:57:08;;;;;;;10.65;4.8;;;;;;;3.64;80.46191;95285.21;;;;
2019/12/19 00:58:09;;;;;;;10.65;4.8;;;;;;;3.64;80.46191;95285.21;;;;
2019/12/19 00:59:11;;;;;;;10.65;4.8;;;;;;;3.64;80.46191;95285.21;;;;
2019/12/19 01:00:18;;;;;;;10.65;4.8;;;;;;;3.64;80.46191;95285.21;;;;
2019/12/19 01:01:32;;;;;;;10.65;4.8;;;;;;;3.64;80.46191;95285.21;;;;
2019/12/19 01:03:18;;;;;;;10.65;4.8;;;;;;;3.64;80.46191;95285.21;;;;
2019/12/19 01:05:29;;;;;;;10.65;4.8;;;;;;;3.64;80.46191;95285.21;;;;
2019/12/19 01:06:34;;;;;;;10.65;4.8;;;;;;;3.64;80.46191;95285.21;;;;
2019/12/19 01:07:36;;;;;;;8.55;4.75;;;;;;;3.39;80.66895;95278.55;;;;
2019/12/19 01:08:44;;;;;;;8.55;4.75;;;;;;;3.39;80.66895;95278.55;;;;
2019/12/19 01:09:47;;;;;;;8.55;4.75;;;;;;;3.39;80.66895;95278.55;;;;
2019/12/19 01:10:54;;;;;;;8.55;4.75;;;;;;;3.39;80.66895;95278.55;;;;
2019/12/19 01:11:55;;;;;;;8.55;4.75;;;;;;;3.39;80.66895;95278.55;;;;
2019/12/19 01:12:57;;;;;;;8.55;4.75;;;;;;;3.39;80.66895;95278.55;;;;
2019/12/19 01:13:58;;;;;;;8.55;4.75;;;;;;;3.39;80.66895;95278.55;;;;
2019/12/19 01:14:59;;;;;;;8.55;4.75;;;;;;;3.39;80.66895;95278.55;;;;
2019/12/19 01:16:00;;;;;;;8.55;4.75;;;;;;;3.39;80.66895;95278.55;;;;
2019/12/19 01:17:01;;;;;;;8.55;4.75;;;;;;;3.39;80.66895;95278.55;;;;
2019/12/19 01:18:02;;;;;;;9.999998;4.550001;;;;;;;3.26;80.9375;95262.41;;;;
2019/12/19 01:19:03;;;;;;;9.999998;4.550001;;;;;;;3.26;80.9375;95262.41;;;;
2019/12/19 01:20:04;;;;;;;9.999998;4.550001;;;;;;;3.26;80.9375;95262.41;;;;
2019/12/19 01:21:05;;;;;;;9.999998;4.550001;;;;;;;3.26;80.9375;95262.41;;;;
2019/12/19 01:22:07;;;;;;;9.999998;4.550001;;;;;;;3.26;80.9375;95262.41;;;;
2019/12/19 01:23:08;;;;;;;9.999998;4.550001;;;;;;;3.26;80.9375;95262.41;;;;
2019/12/19 01:24:09;;;;;;;9.999998;4.550001;;;;;;;3.26;80.9375;95262.41;;;;
2019/12/19 01:25:10;;;;;;;9.999998;4.550001;;;;;;;3.26;80.9375;95262.41;;;;
2019/12/19 01:26:11;;;;;;;9.999998;4.550001;;;;;;;3.26;80.9375;95262.41;;;;
2019/12/19 01:27:12;;;;;;;9.999998;4.550001;;;;;;;3.26;80.9375;95262.41;;;;
2019/12/19 01:28:13;;;;;;;9.999998;4.550001;;;;;;;3.26;80.9375;95262.41;;;;
2019/12/19 01:29:14;;;;;;;10.1;4.95;;;;;;;3.1;81.16992;95251.09;;;;
2019/12/19 01:30:15;;;;;;;10.1;4.95;;;;;;;3.1;81.16992;95251.09;;;;
2019/12/19 01:31:17;;;;;;;10.1;4.95;;;;;;;3.1;81.16992;95251.09;;;;
2019/12/19 01:32:18;;;;;;;10.1;4.95;;;;;;;3.1;81.16992;95251.09;;;;
2019/12/19 01:33:19;;;;;;;10.1;4.95;;;;;;;3.1;81.16992;95251.09;;;;
2019/12/19 01:34:20;;;;;;;10.1;4.95;;;;;;;3.1;81.16992;95251.09;;;;
2019/12/19 01:35:21;;;;;;;10.1;4.95;;;;;;;3.1;81.16992;95251.09;;;;
2019/12/19 01:36:22;;;;;;;10.1;4.95;;;;;;;3.1;81.16992;95251.09;;;;
2019/12/19 01:37:23;;;;;;;10.1;4.95;;;;;;;3.1;81.16992;95251.09;;;;
2019/12/19 01:38:24;;;;;;;10.1;4.95;;;;;;;3.1;81.16992;95251.09;;;;
2019/12/19 01:39:26;;;;;;;10.4;4.5;;;;;;;3.07;81.35156;95227.98;;;;
2019/12/19 01:40:29;;;;;;;10.4;4.5;;;;;;;3.07;81.35156;95227.98;;;;
2019/12/19 01:41:31;;;;;;;10.4;4.5;;;;;;;3.07;81.35156;95227.98;;;;
2019/12/19 01:42:32;;;;;;;10.4;4.5;;;;;;;3.07;81.35156;95227.98;;;;
2019/12/19 01:43:33;;;;;;;10.4;4.5;;;;;;;3.07;81.35156;95227.98;;;;
2019/12/19 01:44:34;;;;;;;10.4;4.5;;;;;;;3.07;81.35156;95227.98;;;;
2019/12/19 01:45:46;;;;;;;10.4;4.5;;;;;;;3.07;81.35156;95227.98;;;;
2019/12/19 01:47:03;;;;;;;10.4;4.5;;;;;;;3.07;81.35156;95227.98;;;;
2019/12/19 01:48:30;;;;;;;10.4;4.5;;;;;;;3.07;81.35156;95227.98;;;;
2019/12/19 01:49:45;;;;;;;10.4;4.5;;;;;;;3.07;81.35156;95227.98;;;;
2019/12/19 01:50:52;;;;;;;10.15;4.500001;;;;;;;3.01;81.60449;95225.56;;;;
2019/12/19 01:51:58;;;;;;;10.15;4.500001;;;;;;;3.01;81.60449;95225.56;;;;
2019/12/19 01:53:00;;;;;;;10.15;4.500001;;;;;;;3.01;81.60449;95225.56;;;;
2019/12/19 01:54:01;;;;;;;10.15;4.500001;;;;;;;3.01;81.60449;95225.56;;;;
2019/12/19 01:55:02;;;;;;;10.15;4.500001;;;;;;;3.01;81.60449;95225.56;;;;
2019/12/19 01:56:03;;;;;;;10.15;4.500001;;;;;;;3.01;81.60449;95225.56;;;;
2019/12/19 01:57:05;;;;;;;10.15;4.500001;;;;;;;3.01;81.60449;95225.56;;;;
2019/12/19 01:58:06;;;;;;;10.15;4.500001;;;;;;;3.01;81.60449;95225.56;;;;
2019/12/19 01:59:07;;;;;;;10.15;4.500001;;;;;;;3.01;81.60449;95225.56;;;;
2019/12/19 02:00:08;;;;;;;10.15;4.500001;;;;;;;3.01;81.60449;95225.56;;;;
2019/12/19 02:01:09;;;;;;;7.05;4.1;;;;;;;3.08;81.8252;95207.86;;;;
2019/12/19 02:02:10;;;;;;;7.05;4.1;;;;;;;3.08;81.8252;95207.86;;;;
2019/12/19 02:03:11;;;;;;;7.05;4.1;;;;;;;3.08;81.8252;95207.86;;;;
2019/12/19 02:04:13;;;;;;;7.05;4.1;;;;;;;3.08;81.8252;95207.86;;;;
2019/12/19 02:05:14;;;;;;;7.05;4.1;;;;;;;3.08;81.8252;95207.86;;;;
2019/12/19 02:06:15;;;;;;;7.05;4.1;;;;;;;3.08;81.8252;95207.86;;;;
2019/12/19 02:07:16;;;;;;;7.05;4.1;;;;;;;3.08;81.8252;95207.86;;;;
2019/12/19 02:08:18;;;;;;;7.05;4.1;;;;;;;3.08;81.8252;95207.86;;;;
2019/12/19 02:09:19;;;;;;;7.05;4.1;;;;;;;3.08;81.8252;95207.86;;;;
2019/12/19 02:10:20;;;;;;;7.05;4.1;;;;;;;3.08;81.8252;95207.86;;;;
2019/12/19 02:11:21;;;;;;;8.549999;4.4;;;;;;;3.09;82.18555;95205.94;;;;
2019/12/19 02:12:22;;;;;;;8.549999;4.4;;;;;;;3.09;82.18555;95205.94;;;;
2019/12/19 02:13:24;;;;;;;8.549999;4.4;;;;;;;3.09;82.18555;95205.94;;;;
2019/12/19 02:14:25;;;;;;;8.549999;4.4;;;;;;;3.09;82.18555;95205.94;;;;
2019/12/19 02:15:26;;;;;;;8.549999;4.4;;;;;;;3.09;82.18555;95205.94;;;;
2019/12/19 02:16:27;;;;;;;8.549999;4.4;;;;;;;3.09;82.18555;95205.94;;;;
2019/12/19 02:17:28;;;;;;;8.549999;4.4;;;;;;;3.09;82.18555;95205.94;;;;
2019/12/19 02:18:30;;;;;;;8.549999;4.4;;;;;;;3.09;82.18555;95205.94;;;;
2019/12/19 02:19:31;;;;;;;8.549999;4.4;;;;;;;3.09;82.18555;95205.94;;;;
2019/12/19 02:20:32;;;;;;;8.549999;4.4;;;;;;;3.09;82.18555;95205.94;;;;
2019/12/19 02:21:33;;;;;;;8.05;4.900001;;;;;;;3.13;82.29785;95197.85;;;;
2019/12/19 02:22:34;;;;;;;8.05;4.900001;;;;;;;3.13;82.29785;95197.85;;;;
2019/12/19 02:23:35;;;;;;;8.05;4.900001;;;;;;;3.13;82.29785;95197.85;;;;
2019/12/19 02:24:36;;;;;;;8.05;4.900001;;;;;;;3.13;82.29785;95197.85;;;;
2019/12/19 02:25:38;;;;;;;8.05;4.900001;;;;;;;3.13;82.29785;95197.85;;;;
2019/12/19 02:26:41;;;;;;;8.05;4.900001;;;;;;;3.13;82.29785;95197.85;;;;
2019/12/19 02:27:43;;;;;;;8.05;4.900001;;;;;;;3.13;82.29785;95197.85;;;;
2019/12/19 02:28:45;;;;;;;8.05;4.900001;;;;;;;3.13;82.29785;95197.85;;;;
2019/12/19 02:29:47;;;;;;;8.05;4.900001;;;;;;;3.13;82.29785;95197.85;;;;
2019/12/19 02:30:48;;;;;;;8.05;4.900001;;;;;;;3.13;82.29785;95197.85;;;;
2019/12/19 02:31:50;;;;;;;8.05;4.900001;;;;;;;3.13;82.29785;95197.85;;;;
2019/12/19 02:32:51;;;;;;;10.2;4.55;;;;;;;3.04;82.39551;95195.95;;;;
2019/12/19 02:33:52;;;;;;;10.2;4.55;;;;;;;3.04;82.39551;95195.95;;;;
2019/12/19 02:34:56;;;;;;;10.2;4.55;;;;;;;3.04;82.39551;95195.95;;;;
2019/12/19 02:35:57;;;;;;;10.2;4.55;;;;;;;3.04;82.39551;95195.95;;;;
2019/12/19 02:36:59;;;;;;;10.2;4.55;;;;;;;3.04;82.39551;95195.95;;;;
2019/12/19 02:38:00;;;;;;;10.2;4.55;;;;;;;3.04;82.39551;95195.95;;;;
2019/12/19 02:39:02;;;;;;;10.2;4.55;;;;;;;3.04;82.39551;95195.95;;;;
2019/12/19 02:40:03;;;;;;;10.2;4.55;;;;;;;3.04;82.39551;95195.95;;;;
2019/12/19 02:41:04;;;;;;;10.2;4.55;;;;;;;3.04;82.39551;95195.95;;;;
2019/12/19 02:42:06;;;;;;;10.2;4.55;;;;;;;3.04;82.39551;95195.95;;;;
2019/12/19 02:43:07;;;;;;;7;4.549999;;;;;;;2.98;82.65723;95193.13;;;;
2019/12/19 02:44:08;;;;;;;7;4.549999;;;;;;;2.98;82.65723;95193.13;;;;
2019/12/19 02:45:09;;;;;;;7;4.549999;;;;;;;2.98;82.65723;95193.13;;;;
2019/12/19 02:46:10;;;;;;;7;4.549999;;;;;;;2.98;82.65723;95193.13;;;;
2019/12/19 02:47:12;;;;;;;7;4.549999;;;;;;;2.98;82.65723;95193.13;;;;
2019/12/19 02:48:13;;;;;;;7;4.549999;;;;;;;2.98;82.65723;95193.13;;;;
2019/12/19 02:49:14;;;;;;;7;4.549999;;;;;;;2.98;82.65723;95193.13;;;;
2019/12/19 02:50:15;;;;;;;7;4.549999;;;;;;;2.98;82.65723;95193.13;;;;
2019/12/19 02:51:16;;;;;;;7;4.549999;;;;;;;2.98;82.65723;95193.13;;;;
2019/12/19 02:52:18;;;;;;;7;4.549999;;;;;;;2.98;82.65723;95193.13;;;;
2019/12/19 02:53:19;;;;;;;7;4.549999;;;;;;;2.98;82.65723;95193.13;;;;
2019/12/19 02:54:20;;;;;;;8.05;4.55;;;;;;;2.84;82.78711;95189.49;;;;
2019/12/19 02:55:22;;;;;;;8.05;4.55;;;;;;;2.84;82.78711;95189.49;;;;
2019/12/19 02:57:29;;;;;;;8.05;4.55;;;;;;;2.84;82.78711;95189.49;;;;
2019/12/19 02:58:35;;;;;;;8.05;4.55;;;;;;;2.84;82.78711;95189.49;;;;
2019/12/19 02:59:37;;;;;;;8.05;4.55;;;;;;;2.84;82.78711;95189.49;;;;
2019/12/19 03:00:43;;;;;;;8.05;4.55;;;;;;;2.84;82.78711;95189.49;;;;
2019/12/19 03:01:55;;;;;;;8.05;4.55;;;;;;;2.84;82.78711;95189.49;;;;
2019/12/19 03:03:03;;;;;;;8.05;4.55;;;;;;;2.84;82.78711;95189.49;;;;
2019/12/19 03:04:04;;;;;;;7.650001;4.55;;;;;;;2.88;83.12988;95180.6;;;;
2019/12/19 03:05:06;;;;;;;7.650001;4.55;;;;;;;2.88;83.12988;95180.6;;;;
2019/12/19 03:06:07;;;;;;;7.650001;4.55;;;;;;;2.88;83.12988;95180.6;;;;
2019/12/19 03:07:09;;;;;;;7.650001;4.55;;;;;;;2.88;83.12988;95180.6;;;;
2019/12/19 03:08:10;;;;;;;7.650001;4.55;;;;;;;2.88;83.12988;95180.6;;;;
2019/12/19 03:09:11;;;;;;;7.650001;4.55;;;;;;;2.88;83.12988;95180.6;;;;
2019/12/19 03:10:12;;;;;;;7.650001;4.55;;;;;;;2.88;83.12988;95180.6;;;;
2019/12/19 03:11:13;;;;;;;7.650001;4.55;;;;;;;2.88;83.12988;95180.6;;;;
2019/12/19 03:12:14;;;;;;;7.650001;4.55;;;;;;;2.88;83.12988;95180.6;;;;
2019/12/19 03:13:15;;;;;;;7.650001;4.55;;;;;;;2.88;83.12988;95180.6;;;;
2019/12/19 03:14:17;;;;;;;7.650001;4.55;;;;;;;2.88;83.12988;95180.6;;;;
2019/12/19 03:20:26;;;;;;;8.850001;4.100001;;;;;;;2.76;83.26465;95174.56;;;;
2019/12/19 03:21:27;;;;;;;8.850001;4.100001;;;;;;;2.76;83.26465;95174.56;;;;
2019/12/19 03:22:28;;;;;;;8.850001;4.100001;;;;;;;2.76;83.26465;95174.56;;;;
2019/12/19 03:23:30;;;;;;;8.850001;4.100001;;;;;;;2.76;83.26465;95174.56;;;;
2019/12/19 03:24:31;;;;;;;8.850001;4.100001;;;;;;;2.76;83.26465;95174.56;;;;
2019/12/19 03:25:32;;;;;;;8.900001;4.5;;;;;;;2.72;83.64355;95172.87;;;;
2019/12/19 03:26:33;;;;;;;8.900001;4.5;;;;;;;2.72;83.64355;95172.87;;;;
2019/12/19 03:27:34;;;;;;;8.900001;4.5;;;;;;;2.72;83.64355;95172.87;;;;
2019/12/19 03:28:36;;;;;;;8.900001;4.5;;;;;;;2.72;83.64355;95172.87;;;;
2019/12/19 03:29:37;;;;;;;8.900001;4.5;;;;;;;2.72;83.64355;95172.87;;;;
2019/12/19 03:30:38;;;;;;;8.900001;4.5;;;;;;;2.72;83.64355;95172.87;;;;
2019/12/19 03:31:39;;;;;;;8.900001;4.5;;;;;;;2.72;83.64355;95172.87;;;;
2019/12/19 03:32:40;;;;;;;8.900001;4.5;;;;;;;2.72;83.64355;95172.87;;;;
2019/12/19 03:33:41;;;;;;;8.900001;4.5;;;;;;;2.72;83.64355;95172.87;;;;
2019/12/19 03:34:42;;;;;;;8.900001;4.5;;;;;;;2.72;83.64355;95172.87;;;;
2019/12/19 03:35:44;;;;;;;8.900001;4.5;;;;;;;2.72;83.64355;95172.87;;;;
2019/12/19 03:36:45;;;;;;;6.8;3.65;;;;;;;2.65;83.76758;95149.33;;;;
2019/12/19 03:37:46;;;;;;;6.8;3.65;;;;;;;2.65;83.76758;95149.33;;;;
2019/12/19 03:38:47;;;;;;;6.8;3.65;;;;;;;2.65;83.76758;95149.33;;;;
2019/12/19 03:39:48;;;;;;;6.8;3.65;;;;;;;2.65;83.76758;95149.33;;;;
2019/12/19 03:40:49;;;;;;;6.8;3.65;;;;;;;2.65;83.76758;95149.33;;;;
2019/12/19 03:41:51;;;;;;;6.8;3.65;;;;;;;2.65;83.76758;95149.33;;;;
2019/12/19 03:42:52;;;;;;;6.8;3.65;;;;;;;2.65;83.76758;95149.33;;;;
2019/12/19 03:43:54;;;;;;;6.8;3.65;;;;;;;2.65;83.76758;95149.33;;;;
2019/12/19 03:44:56;;;;;;;6.8;3.65;;;;;;;2.65;83.76758;95149.33;;;;
2019/12/19 03:45:59;;;;;;;6.8;3.65;;;;;;;2.65;83.76758;95149.33;;;;
2019/12/19 03:47:08;;;;;;;8.75;4.25;;;;;;;2.59;83.87109;95147.86;;;;
2019/12/19 03:48:10;;;;;;;8.75;4.25;;;;;;;2.59;83.87109;95147.86;;;;
2019/12/19 03:49:12;;;;;;;8.75;4.25;;;;;;;2.59;83.87109;95147.86;;;;
2019/12/19 03:50:14;;;;;;;8.75;4.25;;;;;;;2.59;83.87109;95147.86;;;;
2019/12/19 03:51:23;;;;;;;8.75;4.25;;;;;;;2.59;83.87109;95147.86;;;;
2019/12/19 03:52:37;;;;;;;8.75;4.25;;;;;;;2.59;83.87109;95147.86;;;;
2019/12/19 03:53:44;;;;;;;8.75;4.25;;;;;;;2.59;83.87109;95147.86;;;;
2019/12/19 03:55:12;;;;;;;8.75;4.25;;;;;;;2.59;83.87109;95147.86;;;;
2019/12/19 03:56:15;;;;;;;8.75;4.25;;;;;;;2.59;83.87109;95147.86;;;;
2019/12/19 03:57:19;;;;;;;6.700001;4.15;;;;;;;2.48;84.03711;95139.84;;;;
2019/12/19 03:58:22;;;;;;;6.700001;4.15;;;;;;;2.48;84.03711;95139.84;;;;
2019/12/19 03:59:23;;;;;;;6.700001;4.15;;;;;;;2.48;84.03711;95139.84;;;;
2019/12/19 04:00:25;;;;;;;6.700001;4.15;;;;;;;2.48;84.03711;95139.84;;;;
2019/12/19 04:01:26;;;;;;;6.700001;4.15;;;;;;;2.48;84.03711;95139.84;;;;
2019/12/19 04:02:27;;;;;;;6.700001;4.15;;;;;;;2.48;84.03711;95139.84;;;;
2019/12/19 04:03:28;;;;;;;6.700001;4.15;;;;;;;2.48;84.03711;95139.84;;;;
2019/12/19 04:04:29;;;;;;;6.700001;4.15;;;;;;;2.48;84.03711;95139.84;;;;
2019/12/19 04:05:30;;;;;;;6.700001;4.15;;;;;;;2.48;84.03711;95139.84;;;;
2019/12/19 04:06:31;;;;;;;6.700001;4.15;;;;;;;2.48;84.03711;95139.84;;;;
2019/12/19 04:07:32;;;;;;;6.700001;4.15;;;;;;;2.48;84.03711;95139.84;;;;
2019/12/19 04:08:34;;;;;;;6;3.55;;;;;;;2.51;84.33789;95124.83;;;;
2019/12/19 04:09:35;;;;;;;6;3.55;;;;;;;2.51;84.33789;95124.83;;;;
2019/12/19 04:10:36;;;;;;;6;3.55;;;;;;;2.51;84.33789;95124.83;;;;
2019/12/19 04:11:37;;;;;;;6;3.55;;;;;;;2.51;84.33789;95124.83;;;;
2019/12/19 04:12:38;;;;;;;6;3.55;;;;;;;2.51;84.33789;95124.83;;;;
2019/12/19 04:13:40;;;;;;;6;3.55;;;;;;;2.51;84.33789;95124.83;;;;
2019/12/19 04:14:41;;;;;;;6;3.55;;;;;;;2.51;84.33789;95124.83;;;;
2019/12/19 04:15:47;;;;;;;6;3.55;;;;;;;2.51;84.33789;95124.83;;;;
2019/12/19 04:16:50;;;;;;;6;3.55;;;;;;;2.51;84.33789;95124.83;;;;
2019/12/19 04:17:52;;;;;;;6;3.55;;;;;;;2.51;84.33789;95124.83;;;;
2019/12/19 04:18:53;;;;;;;11;3.75;;;;;;;2.47;84.49609;95120.47;;;;
2019/12/19 04:19:54;;;;;;;11;3.75;;;;;;;2.47;84.49609;95120.47;;;;
2019/12/19 04:20:55;;;;;;;11;3.75;;;;;;;2.47;84.49609;95120.47;;;;
2019/12/19 04:21:57;;;;;;;11;3.75;;;;;;;2.47;84.49609;95120.47;;;;
2019/12/19 04:22:58;;;;;;;11;3.75;;;;;;;2.47;84.49609;95120.47;;;;
2019/12/19 04:23:59;;;;;;;11;3.75;;;;;;;2.47;84.49609;95120.47;;;;
2019/12/19 04:25:00;;;;;;;11;3.75;;;;;;;2.47;84.49609;95120.47;;;;
2019/12/19 04:26:01;;;;;;;11;3.75;;;;;;;2.47;84.49609;95120.47;;;;
2019/12/19 04:27:02;;;;;;;11;3.75;;;;;;;2.47;84.49609;95120.47;;;;
2019/12/19 04:28:03;;;;;;;11;3.75;;;;;;;2.47;84.49609;95120.47;;;;
2019/12/19 04:29:04;;;;;;;7.7;3.45;;;;;;;2.42;84.60254;95108.23;;;;
2019/12/19 04:30:06;;;;;;;7.7;3.45;;;;;;;2.42;84.60254;95108.23;;;;
2019/12/19 04:31:07;;;;;;;7.7;3.45;;;;;;;2.42;84.60254;95108.23;;;;
2019/12/19 04:32:08;;;;;;;7.7;3.45;;;;;;;2.42;84.60254;95108.23;;;;
2019/12/19 04:33:09;;;;;;;7.7;3.45;;;;;;;2.42;84.60254;95108.23;;;;
2019/12/19 04:34:10;;;;;;;7.7;3.45;;;;;;;2.42;84.60254;95108.23;;;;
2019/12/19 04:35:11;;;;;;;7.7;3.45;;;;;;;2.42;84.60254;95108.23;;;;
2019/12/19 04:36:12;;;;;;;7.7;3.45;;;;;;;2.42;84.60254;95108.23;;;;
2019/12/19 04:37:13;;;;;;;7.7;3.45;;;;;;;2.42;84.60254;95108.23;;;;
2019/12/19 04:38:15;;;;;;;7.7;3.45;;;;;;;2.42;84.60254;95108.23;;;;
2019/12/19 04:39:16;;;;;;;7.7;3.45;;;;;;;2.42;84.60254;95108.23;;;;
2019/12/19 04:40:17;;;;;;;6.8;4.55;;;;;;;2.26;84.84277;95128.88;;;;
2019/12/19 04:41:18;;;;;;;6.8;4.55;;;;;;;2.26;84.84277;95128.88;;;;
2019/12/19 04:42:19;;;;;;;6.8;4.55;;;;;;;2.26;84.84277;95128.88;;;;
2019/12/19 04:43:20;;;;;;;6.8;4.55;;;;;;;2.26;84.84277;95128.88;;;;
2019/12/19 04:44:21;;;;;;;6.8;4.55;;;;;;;2.26;84.84277;95128.88;;;;
2019/12/19 04:45:22;;;;;;;6.8;4.55;;;;;;;2.26;84.84277;95128.88;;;;
2019/12/19 04:46:23;;;;;;;6.8;4.55;;;;;;;2.26;84.84277;95128.88;;;;
2019/12/19 04:47:24;;;;;;;6.8;4.55;;;;;;;2.26;84.84277;95128.88;;;;
2019/12/19 04:48:26;;;;;;;6.8;4.55;;;;;;;2.26;84.84277;95128.88;;;;
2019/12/19 04:49:28;;;;;;;6.8;4.55;;;;;;;2.26;84.84277;95128.88;;;;
2019/12/19 04:50:29;;;;;;;8.65;4.3;;;;;;;2.22;84.94824;95123.69;;;;
2019/12/19 04:51:30;;;;;;;8.65;4.3;;;;;;;2.22;84.94824;95123.69;;;;
2019/12/19 04:52:32;;;;;;;8.65;4.3;;;;;;;2.22;84.94824;95123.69;;;;
2019/12/19 04:53:33;;;;;;;8.65;4.3;;;;;;;2.22;84.94824;95123.69;;;;
2019/12/19 04:54:34;;;;;;;8.65;4.3;;;;;;;2.22;84.94824;95123.69;;;;
2019/12/19 04:55:35;;;;;;;8.65;4.3;;;;;;;2.22;84.94824;95123.69;;;;
2019/12/19 04:56:39;;;;;;;8.65;4.3;;;;;;;2.22;84.94824;95123.69;;;;
2019/12/19 04:57:46;;;;;;;8.65;4.3;;;;;;;2.22;84.94824;95123.69;;;;
2019/12/19 04:58:51;;;;;;;8.65;4.3;;;;;;;2.22;84.94824;95123.69;;;;
2019/12/19 04:59:52;;;;;;;8.65;4.3;;;;;;;2.22;84.94824;95123.69;;;;
2019/12/19 05:00:53;;;;;;;8.1;4.15;;;;;;;2.04;85.01953;95106.31;;;;
2019/12/19 05:01:54;;;;;;;8.1;4.15;;;;;;;2.04;85.01953;95106.31;;;;
2019/12/19 05:02:55;;;;;;;8.1;4.15;;;;;;;2.04;85.01953;95106.31;;;;
2019/12/19 05:03:57;;;;;;;8.1;4.15;;;;;;;2.04;85.01953;95106.31;;;;
2019/12/19 05:04:58;;;;;;;8.1;4.15;;;;;;;2.04;85.01953;95106.31;;;;
2019/12/19 05:05:59;;;;;;;8.1;4.15;;;;;;;2.04;85.01953;95106.31;;;;
2019/12/19 05:07:00;;;;;;;8.1;4.15;;;;;;;2.04;85.01953;95106.31;;;;
2019/12/19 05:08:01;;;;;;;8.1;4.15;;;;;;;2.04;85.01953;95106.31;;;;
2019/12/19 05:09:03;;;;;;;8.1;4.15;;;;;;;2.04;85.01953;95106.31;;;;
2019/12/19 05:10:04;;;;;;;8.1;4.15;;;;;;;2.04;85.01953;95106.31;;;;
2019/12/19 05:11:07;;;;;;;8.1;4.15;;;;;;;2.04;85.01953;95106.31;;;;
2019/12/19 05:12:09;;;;;;;7.3;4.299999;;;;;;;2.02;85.25391;95111.49;;;;
2019/12/19 05:13:10;;;;;;;7.3;4.299999;;;;;;;2.02;85.25391;95111.49;;;;
2019/12/19 05:14:11;;;;;;;7.3;4.299999;;;;;;;2.02;85.25391;95111.49;;;;
2019/12/19 05:15:12;;;;;;;7.3;4.299999;;;;;;;2.02;85.25391;95111.49;;;;
2019/12/19 05:16:13;;;;;;;7.3;4.299999;;;;;;;2.02;85.25391;95111.49;;;;
2019/12/19 05:17:15;;;;;;;7.3;4.299999;;;;;;;2.02;85.25391;95111.49;;;;
2019/12/19 05:18:16;;;;;;;7.3;4.299999;;;;;;;2.02;85.25391;95111.49;;;;
2019/12/19 05:19:17;;;;;;;7.3;4.299999;;;;;;;2.02;85.25391;95111.49;;;;
2019/12/19 05:20:18;;;;;;;7.3;4.299999;;;;;;;2.02;85.25391;95111.49;;;;
2019/12/19 05:21:19;;;;;;;7.3;4.299999;;;;;;;2.02;85.25391;95111.49;;;;
2019/12/19 05:22:20;;;;;;;7.3;4.299999;;;;;;;2.02;85.25391;95111.49;;;;
2019/12/19 05:23:21;;;;;;;7.3;4.299999;;;;;;;2.02;85.25391;95111.49;;;;
2019/12/19 05:24:22;;;;;;;7.3;4.299999;;;;;;;2.02;85.25391;95111.49;;;;
2019/12/19 05:25:23;;;;;;;7.3;4.299999;;;;;;;2.02;85.25391;95111.49;;;;
2019/12/19 05:26:27;;;;;;;7.3;4.299999;;;;;;;2.02;85.25391;95111.49;;;;
2019/12/19 05:27:28;;;;;;;7.3;4.299999;;;;;;;2.02;85.25391;95111.49;;;;
2019/12/19 05:28:30;;;;;;;7.3;4.299999;;;;;;;2.02;85.25391;95111.49;;;;
2019/12/19 05:29:31;;;;;;;7.3;4.299999;;;;;;;2.02;85.25391;95111.49;;;;
2019/12/19 05:30:32;;;;;;;7.3;4.299999;;;;;;;2.02;85.25391;95111.49;;;;
2019/12/19 05:31:33;;;;;;;7.3;4.299999;;;;;;;2.02;85.25391;95111.49;;;;
2019/12/19 05:32:34;;;;;;;7.3;4.299999;;;;;;;2.02;85.25391;95111.49;;;;
2019/12/19 05:33:35;;;;;;;8.6;4.2;;;;;;;2.11;85.2002;95120.59;;;;
2019/12/19 05:34:41;;;;;;;8.6;4.2;;;;;;;2.11;85.2002;95120.59;;;;
2019/12/19 05:35:43;;;;;;;8.6;4.2;;;;;;;2.11;85.2002;95120.59;;;;
2019/12/19 05:36:44;;;;;;;8.6;4.2;;;;;;;2.11;85.2002;95120.59;;;;
2019/12/19 05:37:48;;;;;;;8.6;4.2;;;;;;;2.11;85.2002;95120.59;;;;
2019/12/19 05:38:49;;;;;;;8.6;4.2;;;;;;;2.11;85.2002;95120.59;;;;
2019/12/19 05:39:50;;;;;;;8.6;4.2;;;;;;;2.11;85.2002;95120.59;;;;
2019/12/19 05:40:51;;;;;;;8.6;4.2;;;;;;;2.11;85.2002;95120.59;;;;
2019/12/19 05:41:52;;;;;;;8.6;4.2;;;;;;;2.11;85.2002;95120.59;;;;
2019/12/19 05:42:53;;;;;;;8.6;4.2;;;;;;;2.11;85.2002;95120.59;;;;
2019/12/19 05:43:54;;;;;;;6.25;4.149999;;;;;;;2.06;85.27246;95138.98;;;;
2019/12/19 05:44:56;;;;;;;6.25;4.149999;;;;;;;2.06;85.27246;95138.98;;;;
2019/12/19 05:45:57;;;;;;;6.25;4.149999;;;;;;;2.06;85.27246;95138.98;;;;
2019/12/19 05:46:58;;;;;;;6.25;4.149999;;;;;;;2.06;85.27246;95138.98;;;;
2019/12/19 05:47:59;;;;;;;6.25;4.149999;;;;;;;2.06;85.27246;95138.98;;;;
2019/12/19 05:49:00;;;;;;;6.25;4.149999;;;;;;;2.06;85.27246;95138.98;;;;
2019/12/19 05:50:01;;;;;;;6.25;4.149999;;;;;;;2.06;85.27246;95138.98;;;;
2019/12/19 05:51:40;;;;;;;6.25;4.149999;;;;;;;2.06;85.27246;95138.98;;;;
2019/12/19 05:53:05;;;;;;;6.25;4.149999;;;;;;;2.06;85.27246;95138.98;;;;
2019/12/19 05:54:11;;;;;;;8.85;4;;;;;;;2.09;85.39258;95130.11;;;;
2019/12/19 05:55:13;;;;;;;8.85;4;;;;;;;2.09;85.39258;95130.11;;;;
2019/12/19 05:56:14;;;;;;;8.85;4;;;;;;;2.09;85.39258;95130.11;;;;
2019/12/19 05:57:15;;;;;;;8.85;4;;;;;;;2.09;85.39258;95130.11;;;;